sensor_id;sensor_type;location;lat;lon;timestamp;temperature;humidity
47090;DHT22;32840;52.516;13.294;2022-11-27T00:00:15;9.20;99.90
47090;DHT22;32840;52.516;13.294;2022-11-27T00:03:00;9.20;99.90
47090;DHT22;32840;52.516;13.294;2022-11-27T00:05:57;9.20;99.90
47090;DHT22;32840;52.516;13.294;2022-11-27T00:08:43;9.20;99.90
47090;DHT22;32840;52.516;13.294;2022-11-27T00:11:29;9.20;99.90
47090;DHT22;32840;52.516;13.294;2022-11-27T00:14:16;9.20;99.90
47090;DHT22;32840;52.516;13.294;2022-11-27T00:17:01;9.30;99.90
47090;DHT22;32840;52.516;13.294;2022-11-27T00:19:45;9.30;99.90
47090;DHT22;32840;52.516;13.294;2022-11-27T00:22:30;9.40;99.90
47090;DHT22;32840;52.516;13.294;2022-11-27T00:25:15;9.40;99.90
47090;DHT22;32840;52.516;13.294;2022-11-27T00:28:00;9.50;99.90
47090;DHT22;32840;52.516;13.294;2022-11-27T00:30:45;9.50;99.90
47090;DHT22;32840;52.516;13.294;2022-11-27T00:33:30;9.50;99.90
47090;DHT22;32840;52.516;13.294;2022-11-27T00:36:15;9.50;99.90
47090;DHT22;32840;52.516;13.294;2022-11-27T00:39:00;9.50;99.90
47090;DHT22;32840;52.516;13.294;2022-11-27T00:41:45;9.50;99.90
47090;DHT22;32840;52.516;13.294;2022-11-27T00:44:30;9.50;99.90
47090;DHT22;32840;52.516;13.294;2022-11-27T00:47:15;9.50;99.90
47090;DHT22;32840;52.516;13.294;2022-11-27T00:50:00;9.40;99.90
47090;DHT22;32840;52.516;13.294;2022-11-27T00:52:44;9.50;99.90
47090;DHT22;32840;52.516;13.294;2022-11-27T00:55:29;9.40;99.90
47090;DHT22;32840;52.516;13.294;2022-11-27T00:58:14;9.40;99.90
47090;DHT22;32840;52.516;13.294;2022-11-27T01:01:01;9.50;99.90
47090;DHT22;32840;52.516;13.294;2022-11-27T01:03:47;9.40;99.90
47090;DHT22;32840;52.516;13.294;2022-11-27T01:06:32;9.40;99.90
47090;DHT22;32840;52.516;13.294;2022-11-27T01:09:17;9.30;99.90
47090;DHT22;32840;52.516;13.294;2022-11-27T01:12:02;9.30;99.90
47090;DHT22;32840;52.516;13.294;2022-11-27T01:14:48;9.40;99.90
47090;DHT22;32840;52.516;13.294;2022-11-27T01:17:32;9.40;99.90
47090;DHT22;32840;52.516;13.294;2022-11-27T01:20:17;9.40;99.90
47090;DHT22;32840;52.516;13.294;2022-11-27T01:23:02;9.40;99.90
47090;DHT22;32840;52.516;13.294;2022-11-27T01:25:47;9.40;99.90
47090;DHT22;32840;52.516;13.294;2022-11-27T01:28:32;9.30;99.90
47090;DHT22;32840;52.516;13.294;2022-11-27T01:31:20;9.30;99.90
47090;DHT22;32840;52.516;13.294;2022-11-27T01:34:07;9.30;99.90
47090;DHT22;32840;52.516;13.294;2022-11-27T01:36:52;9.30;99.90
47090;DHT22;32840;52.516;13.294;2022-11-27T01:39:37;9.30;99.90
47090;DHT22;32840;52.516;13.294;2022-11-27T01:42:22;9.30;99.90
47090;DHT22;32840;52.516;13.294;2022-11-27T01:45:09;9.30;99.90
47090;DHT22;32840;52.516;13.294;2022-11-27T01:48:00;9.30;99.90
47090;DHT22;32840;52.516;13.294;2022-11-27T01:50:45;9.30;99.90
47090;DHT22;32840;52.516;13.294;2022-11-27T01:53:30;9.30;99.90
47090;DHT22;32840;52.516;13.294;2022-11-27T01:56:15;9.30;99.90
47090;DHT22;32840;52.516;13.294;2022-11-27T01:59:01;9.30;99.90
47090;DHT22;32840;52.516;13.294;2022-11-27T02:01:46;9.40;99.90
47090;DHT22;32840;52.516;13.294;2022-11-27T02:04:31;9.40;99.90
47090;DHT22;32840;52.516;13.294;2022-11-27T02:07:16;9.50;99.90
47090;DHT22;32840;52.516;13.294;2022-11-27T02:10:01;9.40;99.90
47090;DHT22;32840;52.516;13.294;2022-11-27T02:13:01;9.40;99.90
47090;DHT22;32840;52.516;13.294;2022-11-27T02:19:13;9.40;99.90
47090;DHT22;32840;52.516;13.294;2022-11-27T02:22:12;9.40;99.90
47090;DHT22;32840;52.516;13.294;2022-11-27T02:25:18;9.30;99.90
47090;DHT22;32840;52.516;13.294;2022-11-27T02:28:29;9.30;99.90
47090;DHT22;32840;52.516;13.294;2022-11-27T02:34:18;9.10;99.90
47090;DHT22;32840;52.516;13.294;2022-11-27T02:40:43;9.10;99.90
47090;DHT22;32840;52.516;13.294;2022-11-27T02:43:33;9.00;99.90
47090;DHT22;32840;52.516;13.294;2022-11-27T02:46:19;8.90;99.90
47090;DHT22;32840;52.516;13.294;2022-11-27T02:49:08;8.80;99.90
47090;DHT22;32840;52.516;13.294;2022-11-27T02:51:56;8.80;99.90
47090;DHT22;32840;52.516;13.294;2022-11-27T02:54:41;8.80;99.90
47090;DHT22;32840;52.516;13.294;2022-11-27T02:57:27;8.80;99.90
47090;DHT22;32840;52.516;13.294;2022-11-27T03:00:13;8.80;99.90
47090;DHT22;32840;52.516;13.294;2022-11-27T03:03:02;8.80;99.90
47090;DHT22;32840;52.516;13.294;2022-11-27T03:05:51;8.80;99.90
47090;DHT22;32840;52.516;13.294;2022-11-27T03:08:41;8.80;99.90
47090;DHT22;32840;52.516;13.294;2022-11-27T03:11:27;8.80;99.90
47090;DHT22;32840;52.516;13.294;2022-11-27T03:14:14;8.80;99.90
47090;DHT22;32840;52.516;13.294;2022-11-27T03:22:54;8.80;99.90
47090;DHT22;32840;52.516;13.294;2022-11-27T03:25:39;8.70;99.90
47090;DHT22;32840;52.516;13.294;2022-11-27T03:28:24;8.70;99.90
47090;DHT22;32840;52.516;13.294;2022-11-27T03:31:10;8.60;99.90
47090;DHT22;32840;52.516;13.294;2022-11-27T03:33:56;8.60;99.90
47090;DHT22;32840;52.516;13.294;2022-11-27T03:36:41;8.60;99.90
47090;DHT22;32840;52.516;13.294;2022-11-27T03:39:26;8.60;99.90
47090;DHT22;32840;52.516;13.294;2022-11-27T03:42:38;8.60;99.90
47090;DHT22;32840;52.516;13.294;2022-11-27T03:45:33;8.60;99.90
47090;DHT22;32840;52.516;13.294;2022-11-27T03:48:38;8.60;99.90
47090;DHT22;32840;52.516;13.294;2022-11-27T03:57:30;8.50;99.90
47090;DHT22;32840;52.516;13.294;2022-11-27T04:00:17;8.60;99.90
47090;DHT22;32840;52.516;13.294;2022-11-27T04:03:03;8.50;99.90
47090;DHT22;32840;52.516;13.294;2022-11-27T04:05:48;8.50;99.90
47090;DHT22;32840;52.516;13.294;2022-11-27T04:08:32;8.60;99.90
47090;DHT22;32840;52.516;13.294;2022-11-27T04:11:17;8.50;99.90
47090;DHT22;32840;52.516;13.294;2022-11-27T04:14:02;8.50;99.90
47090;DHT22;32840;52.516;13.294;2022-11-27T04:16:47;8.40;99.90
47090;DHT22;32840;52.516;13.294;2022-11-27T04:19:32;8.40;99.90
47090;DHT22;32840;52.516;13.294;2022-11-27T04:22:17;8.30;99.90
47090;DHT22;32840;52.516;13.294;2022-11-27T04:25:02;8.30;99.90
47090;DHT22;32840;52.516;13.294;2022-11-27T04:27:48;8.30;99.90
47090;DHT22;32840;52.516;13.294;2022-11-27T04:30:33;8.20;99.90
47090;DHT22;32840;52.516;13.294;2022-11-27T04:33:18;8.10;99.90
47090;DHT22;32840;52.516;13.294;2022-11-27T04:36:03;8.10;99.90
47090;DHT22;32840;52.516;13.294;2022-11-27T04:38:48;8.10;99.90
47090;DHT22;32840;52.516;13.294;2022-11-27T04:41:32;8.10;99.90
47090;DHT22;32840;52.516;13.294;2022-11-27T04:44:17;8.00;99.90
47090;DHT22;32840;52.516;13.294;2022-11-27T04:47:02;8.00;99.90
47090;DHT22;32840;52.516;13.294;2022-11-27T04:49:47;7.90;99.90
47090;DHT22;32840;52.516;13.294;2022-11-27T04:52:32;8.00;99.90
47090;DHT22;32840;52.516;13.294;2022-11-27T04:55:17;7.90;99.90
47090;DHT22;32840;52.516;13.294;2022-11-27T04:58:02;7.80;99.90
47090;DHT22;32840;52.516;13.294;2022-11-27T05:00:47;7.70;99.90
47090;DHT22;32840;52.516;13.294;2022-11-27T05:03:32;7.70;99.90
47090;DHT22;32840;52.516;13.294;2022-11-27T05:06:16;7.60;99.90
47090;DHT22;32840;52.516;13.294;2022-11-27T05:09:01;7.60;99.90
47090;DHT22;32840;52.516;13.294;2022-11-27T05:11:46;7.50;99.90
47090;DHT22;32840;52.516;13.294;2022-11-27T05:14:31;7.50;99.90
47090;DHT22;32840;52.516;13.294;2022-11-27T05:17:16;7.40;99.90
47090;DHT22;32840;52.516;13.294;2022-11-27T05:20:01;7.40;99.90
47090;DHT22;32840;52.516;13.294;2022-11-27T05:22:47;7.40;99.90
47090;DHT22;32840;52.516;13.294;2022-11-27T05:25:33;7.40;99.90
47090;DHT22;32840;52.516;13.294;2022-11-27T05:28:18;7.30;99.90
47090;DHT22;32840;52.516;13.294;2022-11-27T05:31:03;7.30;99.90
47090;DHT22;32840;52.516;13.294;2022-11-27T05:33:48;7.30;99.90
47090;DHT22;32840;52.516;13.294;2022-11-27T05:36:33;7.30;99.90
47090;DHT22;32840;52.516;13.294;2022-11-27T05:39:18;7.20;99.90
47090;DHT22;32840;52.516;13.294;2022-11-27T05:42:03;7.20;99.90
47090;DHT22;32840;52.516;13.294;2022-11-27T05:44:48;7.10;99.90
47090;DHT22;32840;52.516;13.294;2022-11-27T05:47:33;7.10;99.90
47090;DHT22;32840;52.516;13.294;2022-11-27T05:50:18;7.00;99.90
47090;DHT22;32840;52.516;13.294;2022-11-27T05:53:03;7.00;99.90
47090;DHT22;32840;52.516;13.294;2022-11-27T05:55:48;7.00;99.90
47090;DHT22;32840;52.516;13.294;2022-11-27T05:58:33;7.00;99.90
47090;DHT22;32840;52.516;13.294;2022-11-27T06:01:18;6.90;99.90
47090;DHT22;32840;52.516;13.294;2022-11-27T06:04:04;6.90;99.90
47090;DHT22;32840;52.516;13.294;2022-11-27T06:06:49;6.90;99.90
47090;DHT22;32840;52.516;13.294;2022-11-27T06:09:36;6.90;99.90
47090;DHT22;32840;52.516;13.294;2022-11-27T06:12:21;6.90;99.90
47090;DHT22;32840;52.516;13.294;2022-11-27T06:15:06;6.90;99.90
47090;DHT22;32840;52.516;13.294;2022-11-27T06:17:51;6.90;99.90
47090;DHT22;32840;52.516;13.294;2022-11-27T06:20:36;6.80;99.90
47090;DHT22;32840;52.516;13.294;2022-11-27T06:23:22;6.80;99.90
47090;DHT22;32840;52.516;13.294;2022-11-27T06:26:19;6.80;99.90
47090;DHT22;32840;52.516;13.294;2022-11-27T06:29:04;6.80;99.90
47090;DHT22;32840;52.516;13.294;2022-11-27T06:31:49;6.80;99.90
47090;DHT22;32840;52.516;13.294;2022-11-27T06:34:34;6.80;99.90
47090;DHT22;32840;52.516;13.294;2022-11-27T06:37:19;6.80;99.90
47090;DHT22;32840;52.516;13.294;2022-11-27T06:40:04;6.80;99.90
47090;DHT22;32840;52.516;13.294;2022-11-27T06:42:49;6.80;99.90
47090;DHT22;32840;52.516;13.294;2022-11-27T06:45:34;6.80;99.90
47090;DHT22;32840;52.516;13.294;2022-11-27T06:48:19;6.80;99.90
47090;DHT22;32840;52.516;13.294;2022-11-27T06:51:05;6.80;99.90
47090;DHT22;32840;52.516;13.294;2022-11-27T06:53:51;6.70;99.90
47090;DHT22;32840;52.516;13.294;2022-11-27T06:56:36;6.70;99.90
47090;DHT22;32840;52.516;13.294;2022-11-27T06:59:21;6.60;99.90
47090;DHT22;32840;52.516;13.294;2022-11-27T07:02:12;6.50;99.90
47090;DHT22;32840;52.516;13.294;2022-11-27T07:04:57;6.50;99.90
47090;DHT22;32840;52.516;13.294;2022-11-27T07:07:41;6.50;99.90
47090;DHT22;32840;52.516;13.294;2022-11-27T07:10:26;6.40;99.90
47090;DHT22;32840;52.516;13.294;2022-11-27T07:13:12;6.40;99.90
47090;DHT22;32840;52.516;13.294;2022-11-27T07:16:03;6.40;99.90
47090;DHT22;32840;52.516;13.294;2022-11-27T07:18:51;6.40;99.90
47090;DHT22;32840;52.516;13.294;2022-11-27T07:21:37;6.40;99.90
47090;DHT22;32840;52.516;13.294;2022-11-27T07:24:21;6.40;99.90
47090;DHT22;32840;52.516;13.294;2022-11-27T07:27:06;6.40;99.90
47090;DHT22;32840;52.516;13.294;2022-11-27T07:29:52;6.30;99.90
47090;DHT22;32840;52.516;13.294;2022-11-27T07:32:37;6.40;99.90
47090;DHT22;32840;52.516;13.294;2022-11-27T07:35:22;6.30;99.90
47090;DHT22;32840;52.516;13.294;2022-11-27T07:38:07;6.30;99.90
47090;DHT22;32840;52.516;13.294;2022-11-27T07:40:52;6.30;99.90
47090;DHT22;32840;52.516;13.294;2022-11-27T07:43:37;6.30;99.90
47090;DHT22;32840;52.516;13.294;2022-11-27T07:46:23;6.30;99.90
47090;DHT22;32840;52.516;13.294;2022-11-27T07:49:08;6.30;99.90
47090;DHT22;32840;52.516;13.294;2022-11-27T07:51:53;6.30;99.90
47090;DHT22;32840;52.516;13.294;2022-11-27T07:54:38;6.40;99.90
47090;DHT22;32840;52.516;13.294;2022-11-27T07:57:23;6.30;99.90
47090;DHT22;32840;52.516;13.294;2022-11-27T08:00:09;6.30;99.90
47090;DHT22;32840;52.516;13.294;2022-11-27T08:02:54;6.30;99.90
47090;DHT22;32840;52.516;13.294;2022-11-27T08:05:39;6.40;99.90
47090;DHT22;32840;52.516;13.294;2022-11-27T08:08:24;6.40;99.90
47090;DHT22;32840;52.516;13.294;2022-11-27T08:11:20;6.40;99.90
47090;DHT22;32840;52.516;13.294;2022-11-27T08:14:07;6.40;99.90
47090;DHT22;32840;52.516;13.294;2022-11-27T08:16:52;6.40;99.90
47090;DHT22;32840;52.516;13.294;2022-11-27T08:19:37;6.40;99.90
47090;DHT22;32840;52.516;13.294;2022-11-27T08:22:22;6.50;99.90
47090;DHT22;32840;52.516;13.294;2022-11-27T08:25:07;6.50;99.90
47090;DHT22;32840;52.516;13.294;2022-11-27T08:27:52;6.50;99.90
47090;DHT22;32840;52.516;13.294;2022-11-27T08:30:37;6.50;99.90
47090;DHT22;32840;52.516;13.294;2022-11-27T08:33:21;6.50;99.90
47090;DHT22;32840;52.516;13.294;2022-11-27T08:36:07;6.60;99.90
47090;DHT22;32840;52.516;13.294;2022-11-27T08:38:52;6.60;99.90
47090;DHT22;32840;52.516;13.294;2022-11-27T08:41:37;6.60;99.90
47090;DHT22;32840;52.516;13.294;2022-11-27T08:44:21;6.60;99.90
47090;DHT22;32840;52.516;13.294;2022-11-27T08:47:06;6.60;99.90
47090;DHT22;32840;52.516;13.294;2022-11-27T08:49:51;6.60;99.90
47090;DHT22;32840;52.516;13.294;2022-11-27T08:52:36;6.60;99.90
47090;DHT22;32840;52.516;13.294;2022-11-27T08:55:21;6.60;99.90
47090;DHT22;32840;52.516;13.294;2022-11-27T08:58:06;6.70;99.90
47090;DHT22;32840;52.516;13.294;2022-11-27T09:00:51;6.70;99.90
47090;DHT22;32840;52.516;13.294;2022-11-27T09:03:36;6.90;99.90
47090;DHT22;32840;52.516;13.294;2022-11-27T09:06:23;7.00;99.90
47090;DHT22;32840;52.516;13.294;2022-11-27T09:09:08;7.10;99.90
47090;DHT22;32840;52.516;13.294;2022-11-27T09:11:53;7.20;99.90
47090;DHT22;32840;52.516;13.294;2022-11-27T09:14:38;7.30;99.90
47090;DHT22;32840;52.516;13.294;2022-11-27T09:17:23;7.30;99.90
47090;DHT22;32840;52.516;13.294;2022-11-27T09:20:09;7.30;99.90
47090;DHT22;32840;52.516;13.294;2022-11-27T09:22:54;7.30;99.90
47090;DHT22;32840;52.516;13.294;2022-11-27T09:25:39;7.30;99.90
47090;DHT22;32840;52.516;13.294;2022-11-27T09:28:24;7.30;99.90
47090;DHT22;32840;52.516;13.294;2022-11-27T09:31:12;7.40;99.90
47090;DHT22;32840;52.516;13.294;2022-11-27T09:33:57;7.40;99.90
47090;DHT22;32840;52.516;13.294;2022-11-27T09:36:42;7.50;99.90
47090;DHT22;32840;52.516;13.294;2022-11-27T09:39:28;7.50;99.90
47090;DHT22;32840;52.516;13.294;2022-11-27T09:42:39;7.60;99.90
47090;DHT22;32840;52.516;13.294;2022-11-27T09:45:25;7.50;99.90
47090;DHT22;32840;52.516;13.294;2022-11-27T09:48:39;7.60;99.90
47090;DHT22;32840;52.516;13.294;2022-11-27T09:51:36;7.60;99.90
47090;DHT22;32840;52.516;13.294;2022-11-27T09:54:42;7.70;99.90
47090;DHT22;32840;52.516;13.294;2022-11-27T09:57:37;7.70;99.90
47090;DHT22;32840;52.516;13.294;2022-11-27T10:00:22;7.60;99.90
47090;DHT22;32840;52.516;13.294;2022-11-27T10:03:25;7.60;99.90
47090;DHT22;32840;52.516;13.294;2022-11-27T10:09:48;7.70;99.90
47090;DHT22;32840;52.516;13.294;2022-11-27T10:15:50;7.80;99.90
47090;DHT22;32840;52.516;13.294;2022-11-27T10:18:44;7.90;99.90
47090;DHT22;32840;52.516;13.294;2022-11-27T10:21:45;8.00;99.90
47090;DHT22;32840;52.516;13.294;2022-11-27T10:27:37;8.10;99.90
47090;DHT22;32840;52.516;13.294;2022-11-27T10:30:26;8.10;99.90
47090;DHT22;32840;52.516;13.294;2022-11-27T10:33:23;8.10;99.90
47090;DHT22;32840;52.516;13.294;2022-11-27T10:36:13;8.10;99.90
47090;DHT22;32840;52.516;13.294;2022-11-27T10:38:59;8.10;99.90
47090;DHT22;32840;52.516;13.294;2022-11-27T10:41:52;8.20;99.90
47090;DHT22;32840;52.516;13.294;2022-11-27T10:44:40;8.30;99.90
47090;DHT22;32840;52.516;13.294;2022-11-27T10:47:27;8.30;99.90
47090;DHT22;32840;52.516;13.294;2022-11-27T10:50:17;8.30;99.90
47090;DHT22;32840;52.516;13.294;2022-11-27T10:53:07;8.40;99.90
47090;DHT22;32840;52.516;13.294;2022-11-27T10:59:04;8.50;99.90
47090;DHT22;32840;52.516;13.294;2022-11-27T11:01:51;8.50;99.90
47090;DHT22;32840;52.516;13.294;2022-11-27T11:04:38;8.50;99.90
47090;DHT22;32840;52.516;13.294;2022-11-27T11:07:25;8.50;99.90
47090;DHT22;32840;52.516;13.294;2022-11-27T11:10:28;8.60;99.90
47090;DHT22;32840;52.516;13.294;2022-11-27T11:16:03;8.70;99.90
47090;DHT22;32840;52.516;13.294;2022-11-27T11:18:50;8.70;99.90
47090;DHT22;32840;52.516;13.294;2022-11-27T11:21:40;8.70;99.90
47090;DHT22;32840;52.516;13.294;2022-11-27T11:24:30;8.60;99.90
47090;DHT22;32840;52.516;13.294;2022-11-27T11:27:28;8.60;99.90
47090;DHT22;32840;52.516;13.294;2022-11-27T11:30:26;8.70;99.90
47090;DHT22;32840;52.516;13.294;2022-11-27T11:33:12;8.90;99.90
47090;DHT22;32840;52.516;13.294;2022-11-27T11:36:05;9.00;99.90
47090;DHT22;32840;52.516;13.294;2022-11-27T11:38:52;9.10;99.90
47090;DHT22;32840;52.516;13.294;2022-11-27T11:41:38;9.20;99.90
47090;DHT22;32840;52.516;13.294;2022-11-27T11:44:32;9.10;99.90
47090;DHT22;32840;52.516;13.294;2022-11-27T11:47:20;9.00;99.90
47090;DHT22;32840;52.516;13.294;2022-11-27T11:50:12;9.10;99.90
47090;DHT22;32840;52.516;13.294;2022-11-27T11:56:28;9.00;99.90
47090;DHT22;32840;52.516;13.294;2022-11-27T11:59:35;9.00;99.90
47090;DHT22;32840;52.516;13.294;2022-11-27T12:03:03;9.00;99.90
47090;DHT22;32840;52.516;13.294;2022-11-27T12:25:52;8.80;99.90
47090;DHT22;32840;52.516;13.294;2022-11-27T12:29:02;8.70;99.90
47090;DHT22;32840;52.516;13.294;2022-11-27T12:38:19;8.70;99.90
47090;DHT22;32840;52.516;13.294;2022-11-27T12:47:37;8.60;99.90
47090;DHT22;32840;52.516;13.294;2022-11-27T12:50:40;8.60;99.90
47090;DHT22;32840;52.516;13.294;2022-11-27T12:53:41;8.70;99.90
47090;DHT22;32840;52.516;13.294;2022-11-27T12:56:39;8.70;99.90
47090;DHT22;32840;52.516;13.294;2022-11-27T12:59:58;8.70;99.90
47090;DHT22;32840;52.516;13.294;2022-11-27T13:05:45;8.70;99.90
47090;DHT22;32840;52.516;13.294;2022-11-27T13:11:32;8.80;99.90
47090;DHT22;32840;52.516;13.294;2022-11-27T13:14:20;8.80;99.90
47090;DHT22;32840;52.516;13.294;2022-11-27T13:17:10;8.80;99.90
47090;DHT22;32840;52.516;13.294;2022-11-27T13:20:00;8.80;99.90
47090;DHT22;32840;52.516;13.294;2022-11-27T13:22:46;8.70;99.90
47090;DHT22;32840;52.516;13.294;2022-11-27T13:25:34;8.70;99.90
47090;DHT22;32840;52.516;13.294;2022-11-27T13:28:45;8.70;99.90
47090;DHT22;32840;52.516;13.294;2022-11-27T13:31:33;8.60;99.90
47090;DHT22;32840;52.516;13.294;2022-11-27T13:34:22;8.60;99.90
47090;DHT22;32840;52.516;13.294;2022-11-27T13:37:08;8.60;99.90
47090;DHT22;32840;52.516;13.294;2022-11-27T13:42:49;8.60;99.90
47090;DHT22;32840;52.516;13.294;2022-11-27T13:45:38;8.50;99.90
47090;DHT22;32840;52.516;13.294;2022-11-27T13:48:39;8.40;99.90
47090;DHT22;32840;52.516;13.294;2022-11-27T13:51:31;8.40;99.90
47090;DHT22;32840;52.516;13.294;2022-11-27T13:54:18;8.40;99.90
47090;DHT22;32840;52.516;13.294;2022-11-27T13:57:11;8.40;99.90
47090;DHT22;32840;52.516;13.294;2022-11-27T14:02:44;8.40;99.90
47090;DHT22;32840;52.516;13.294;2022-11-27T14:05:39;8.40;99.90
47090;DHT22;32840;52.516;13.294;2022-11-27T14:08:33;8.40;99.90
47090;DHT22;32840;52.516;13.294;2022-11-27T14:11:30;8.40;99.90
47090;DHT22;32840;52.516;13.294;2022-11-27T14:14:21;8.50;99.90
47090;DHT22;32840;52.516;13.294;2022-11-27T14:17:40;8.40;99.90
47090;DHT22;32840;52.516;13.294;2022-11-27T14:20:28;8.40;99.90
47090;DHT22;32840;52.516;13.294;2022-11-27T14:23:32;8.40;99.90
47090;DHT22;32840;52.516;13.294;2022-11-27T14:26:23;8.40;99.90
47090;DHT22;32840;52.516;13.294;2022-11-27T14:29:10;8.40;99.90
47090;DHT22;32840;52.516;13.294;2022-11-27T14:31:58;8.40;99.90
47090;DHT22;32840;52.516;13.294;2022-11-27T14:34:43;8.40;99.90
47090;DHT22;32840;52.516;13.294;2022-11-27T14:37:29;8.30;99.90
47090;DHT22;32840;52.516;13.294;2022-11-27T14:40:19;8.30;99.90
47090;DHT22;32840;52.516;13.294;2022-11-27T14:43:08;8.30;99.90
47090;DHT22;32840;52.516;13.294;2022-11-27T14:45:56;8.30;99.90
47090;DHT22;32840;52.516;13.294;2022-11-27T14:48:50;8.30;99.90
47090;DHT22;32840;52.516;13.294;2022-11-27T14:51:41;8.20;99.90
47090;DHT22;32840;52.516;13.294;2022-11-27T14:54:37;8.30;99.90
47090;DHT22;32840;52.516;13.294;2022-11-27T14:57:25;8.30;99.90
47090;DHT22;32840;52.516;13.294;2022-11-27T15:00:18;8.20;99.90
47090;DHT22;32840;52.516;13.294;2022-11-27T15:03:08;8.20;99.90
47090;DHT22;32840;52.516;13.294;2022-11-27T15:06:01;8.10;99.90
47090;DHT22;32840;52.516;13.294;2022-11-27T15:08:46;8.10;99.90
47090;DHT22;32840;52.516;13.294;2022-11-27T15:11:32;8.10;99.90
47090;DHT22;32840;52.516;13.294;2022-11-27T15:14:17;8.10;99.90
47090;DHT22;32840;52.516;13.294;2022-11-27T15:17:02;8.10;99.90
47090;DHT22;32840;52.516;13.294;2022-11-27T15:19:47;8.10;99.90
47090;DHT22;32840;52.516;13.294;2022-11-27T15:22:31;8.10;99.90
47090;DHT22;32840;52.516;13.294;2022-11-27T15:25:36;8.10;99.90
47090;DHT22;32840;52.516;13.294;2022-11-27T15:36:59;8.00;99.90
47090;DHT22;32840;52.516;13.294;2022-11-27T15:39:52;8.00;99.90
47090;DHT22;32840;52.516;13.294;2022-11-27T15:42:37;8.00;99.90
47090;DHT22;32840;52.516;13.294;2022-11-27T15:45:26;8.00;99.90
47090;DHT22;32840;52.516;13.294;2022-11-27T15:48:15;7.90;99.90
47090;DHT22;32840;52.516;13.294;2022-11-27T15:51:00;8.00;99.90
47090;DHT22;32840;52.516;13.294;2022-11-27T15:53:45;8.00;99.90
47090;DHT22;32840;52.516;13.294;2022-11-27T15:56:31;8.00;99.90
47090;DHT22;32840;52.516;13.294;2022-11-27T15:59:16;8.00;99.90
47090;DHT22;32840;52.516;13.294;2022-11-27T16:02:04;7.90;99.90
47090;DHT22;32840;52.516;13.294;2022-11-27T16:04:49;7.90;99.90
47090;DHT22;32840;52.516;13.294;2022-11-27T16:07:34;7.90;99.90
47090;DHT22;32840;52.516;13.294;2022-11-27T16:10:19;7.90;99.90
47090;DHT22;32840;52.516;13.294;2022-11-27T16:13:04;7.90;99.90
47090;DHT22;32840;52.516;13.294;2022-11-27T16:15:49;7.90;99.90
47090;DHT22;32840;52.516;13.294;2022-11-27T16:18:34;7.90;99.90
47090;DHT22;32840;52.516;13.294;2022-11-27T16:21:18;7.90;99.90
47090;DHT22;32840;52.516;13.294;2022-11-27T16:24:06;7.90;99.90
47090;DHT22;32840;52.516;13.294;2022-11-27T16:26:51;7.90;99.90
47090;DHT22;32840;52.516;13.294;2022-11-27T16:29:35;7.90;99.90
47090;DHT22;32840;52.516;13.294;2022-11-27T16:32:20;7.90;99.90
47090;DHT22;32840;52.516;13.294;2022-11-27T16:35:06;7.90;99.90
47090;DHT22;32840;52.516;13.294;2022-11-27T16:37:51;7.90;99.90
47090;DHT22;32840;52.516;13.294;2022-11-27T16:40:36;7.80;99.90
47090;DHT22;32840;52.516;13.294;2022-11-27T16:43:20;7.70;99.90
47090;DHT22;32840;52.516;13.294;2022-11-27T16:46:26;7.70;99.90
47090;DHT22;32840;52.516;13.294;2022-11-27T16:49:11;7.70;99.90
47090;DHT22;32840;52.516;13.294;2022-11-27T16:51:56;7.70;99.90
47090;DHT22;32840;52.516;13.294;2022-11-27T16:54:41;7.70;99.90
47090;DHT22;32840;52.516;13.294;2022-11-27T16:57:26;7.70;99.90
47090;DHT22;32840;52.516;13.294;2022-11-27T17:00:11;7.70;99.90
47090;DHT22;32840;52.516;13.294;2022-11-27T17:02:56;7.70;99.90
47090;DHT22;32840;52.516;13.294;2022-11-27T17:05:41;7.70;99.90
47090;DHT22;32840;52.516;13.294;2022-11-27T17:08:26;7.60;99.90
47090;DHT22;32840;52.516;13.294;2022-11-27T17:11:31;7.60;99.90
47090;DHT22;32840;52.516;13.294;2022-11-27T17:14:17;7.60;99.90
47090;DHT22;32840;52.516;13.294;2022-11-27T17:17:03;7.60;99.90
47090;DHT22;32840;52.516;13.294;2022-11-27T17:19:49;7.60;99.90
47090;DHT22;32840;52.516;13.294;2022-11-27T17:22:38;7.50;99.90
47090;DHT22;32840;52.516;13.294;2022-11-27T17:25:23;7.50;99.90
47090;DHT22;32840;52.516;13.294;2022-11-27T17:28:08;7.50;99.90
47090;DHT22;32840;52.516;13.294;2022-11-27T17:30:53;7.50;99.90
47090;DHT22;32840;52.516;13.294;2022-11-27T17:33:38;7.50;99.90
47090;DHT22;32840;52.516;13.294;2022-11-27T17:36:24;7.60;99.90
47090;DHT22;32840;52.516;13.294;2022-11-27T17:39:12;7.60;99.90
47090;DHT22;32840;52.516;13.294;2022-11-27T17:41:57;7.50;99.90
47090;DHT22;32840;52.516;13.294;2022-11-27T17:44:42;7.50;99.90
47090;DHT22;32840;52.516;13.294;2022-11-27T17:47:27;7.40;99.90
47090;DHT22;32840;52.516;13.294;2022-11-27T17:50:12;7.50;99.90
47090;DHT22;32840;52.516;13.294;2022-11-27T17:52:57;7.40;99.90
47090;DHT22;32840;52.516;13.294;2022-11-27T17:55:42;7.50;99.90
47090;DHT22;32840;52.516;13.294;2022-11-27T17:58:27;7.50;99.90
47090;DHT22;32840;52.516;13.294;2022-11-27T18:01:23;7.50;99.90
47090;DHT22;32840;52.516;13.294;2022-11-27T18:04:08;7.50;99.90
47090;DHT22;32840;52.516;13.294;2022-11-27T18:06:54;7.50;99.90
47090;DHT22;32840;52.516;13.294;2022-11-27T18:09:39;7.60;99.90
47090;DHT22;32840;52.516;13.294;2022-11-27T18:12:24;7.60;99.90
47090;DHT22;32840;52.516;13.294;2022-11-27T18:15:09;7.50;99.90
47090;DHT22;32840;52.516;13.294;2022-11-27T18:17:54;7.60;99.90
47090;DHT22;32840;52.516;13.294;2022-11-27T18:20:39;7.60;99.90
47090;DHT22;32840;52.516;13.294;2022-11-27T18:23:24;7.60;99.90
47090;DHT22;32840;52.516;13.294;2022-11-27T18:26:10;7.60;99.90
47090;DHT22;32840;52.516;13.294;2022-11-27T18:28:58;7.60;99.90
47090;DHT22;32840;52.516;13.294;2022-11-27T18:31:43;7.60;99.90
47090;DHT22;32840;52.516;13.294;2022-11-27T18:34:28;7.60;99.90
47090;DHT22;32840;52.516;13.294;2022-11-27T18:37:13;7.60;99.90
47090;DHT22;32840;52.516;13.294;2022-11-27T18:39:58;7.60;99.90
47090;DHT22;32840;52.516;13.294;2022-11-27T18:42:43;7.60;99.90
47090;DHT22;32840;52.516;13.294;2022-11-27T18:45:28;7.60;99.90
47090;DHT22;32840;52.516;13.294;2022-11-27T18:48:13;7.50;99.90
47090;DHT22;32840;52.516;13.294;2022-11-27T18:51:03;7.50;99.90
47090;DHT22;32840;52.516;13.294;2022-11-27T18:53:50;7.50;99.90
47090;DHT22;32840;52.516;13.294;2022-11-27T18:56:35;7.40;99.90
47090;DHT22;32840;52.516;13.294;2022-11-27T18:59:21;7.40;99.90
47090;DHT22;32840;52.516;13.294;2022-11-27T19:02:06;7.40;99.90
47090;DHT22;32840;52.516;13.294;2022-11-27T19:04:51;7.40;99.90
47090;DHT22;32840;52.516;13.294;2022-11-27T19:07:36;7.30;99.90
47090;DHT22;32840;52.516;13.294;2022-11-27T19:10:21;7.30;99.90
47090;DHT22;32840;52.516;13.294;2022-11-27T19:13:06;7.30;99.90